sensor_id;sensor_type;location;lat;lon;timestamp;pressure;altitude;pressure_sealevel;temperature;humidity
50430;BME280;36359;41.556;-8.418;2023-12-28T00:00:28;61907.69;;;13.36;100.00
50430;BME280;36359;41.556;-8.418;2023-12-28T00:02:53;61905.53;;;13.34;100.00
50430;BME280;36359;41.556;-8.418;2023-12-28T00:05:19;61904.47;;;13.33;100.00
50430;BME280;36359;41.556;-8.418;2023-12-28T00:07:45;61896.47;;;13.26;100.00
50430;BME280;36359;41.556;-8.418;2023-12-28T00:10:10;61889.50;;;13.19;100.00
50430;BME280;36359;41.556;-8.418;2023-12-28T00:12:36;61886.28;;;13.16;100.00
50430;BME280;36359;41.556;-8.418;2023-12-28T00:15:02;61880.94;;;13.11;100.00
50430;BME280;36359;41.556;-8.418;2023-12-28T00:17:28;61872.91;;;13.06;100.00
50430;BME280;36359;41.556;-8.418;2023-12-28T00:19:54;61877.19;;;13.10;100.00
50430;BME280;36359;41.556;-8.418;2023-12-28T00:22:20;61878.28;;;13.08;100.00
50430;BME280;36359;41.556;-8.418;2023-12-28T00:24:45;61872.34;;;13.08;100.00
50430;BME280;36359;41.556;-8.418;2023-12-28T00:27:11;61871.34;;;13.02;100.00
50430;BME280;36359;41.556;-8.418;2023-12-28T00:29:37;61876.19;;;13.04;100.00
50430;BME280;36359;41.556;-8.418;2023-12-28T00:32:06;61874.00;;;13.04;100.00
50430;BME280;36359;41.556;-8.418;2023-12-28T00:34:32;61857.41;;;12.91;100.00
50430;BME280;36359;41.556;-8.418;2023-12-28T00:36:58;61867.06;;;12.98;100.00
50430;BME280;36359;41.556;-8.418;2023-12-28T00:39:24;61880.41;;;13.10;100.00
50430;BME280;36359;41.556;-8.418;2023-12-28T00:41:50;61879.34;;;13.09;100.00
50430;BME280;36359;41.556;-8.418;2023-12-28T00:44:15;61880.94;;;13.11;100.00
50430;BME280;36359;41.556;-8.418;2023-12-28T00:49:07;61872.41;;;13.03;100.00
50430;BME280;36359;41.556;-8.418;2023-12-28T00:51:34;61880.44;;;13.08;100.00
50430;BME280;36359;41.556;-8.418;2023-12-28T00:53:59;61880.44;;;13.08;100.00
50430;BME280;36359;41.556;-8.418;2023-12-28T00:56:25;61893.22;;;13.25;100.00
50430;BME280;36359;41.556;-8.418;2023-12-28T00:58:51;61905.50;;;13.39;100.00
50430;BME280;36359;41.556;-8.418;2023-12-28T01:01:18;61900.19;;;13.29;100.00
50430;BME280;36359;41.556;-8.418;2023-12-28T01:03:43;61898.06;;;13.27;100.00
50430;BME280;36359;41.556;-8.418;2023-12-28T01:06:09;61894.84;;;13.24;100.00
50430;BME280;36359;41.556;-8.418;2023-12-28T01:08:35;61897.53;;;13.27;100.00
50430;BME280;36359;41.556;-8.418;2023-12-28T01:11:01;61902.88;;;13.32;100.00
50430;BME280;36359;41.556;-8.418;2023-12-28T01:13:28;61909.28;;;13.38;100.00
50430;BME280;36359;41.556;-8.418;2023-12-28T01:16:03;61896.47;;;13.23;100.00
50430;BME280;36359;41.556;-8.418;2023-12-28T01:18:29;61911.97;;;13.40;100.00
50430;BME280;36359;41.556;-8.418;2023-12-28T01:20:55;61909.25;;;13.40;100.00
50430;BME280;36359;41.556;-8.418;2023-12-28T01:23:21;61911.41;;;13.43;100.00
50430;BME280;36359;41.556;-8.418;2023-12-28T01:25:46;61917.81;;;13.49;100.00
50430;BME280;36359;41.556;-8.418;2023-12-28T01:28:12;61909.84;;;13.38;100.00
50430;BME280;36359;41.556;-8.418;2023-12-28T01:30:38;61905.00;;;13.36;100.00
50430;BME280;36359;41.556;-8.418;2023-12-28T01:33:04;61903.44;;;13.30;100.00
50430;BME280;36359;41.556;-8.418;2023-12-28T01:35:30;61900.16;;;13.34;100.00
50430;BME280;36359;41.556;-8.418;2023-12-28T01:37:55;61901.81;;;13.31;100.00
50430;BME280;36359;41.556;-8.418;2023-12-28T01:40:21;61906.06;;;13.35;100.00
50430;BME280;36359;41.556;-8.418;2023-12-28T01:42:47;61927.97;;;13.56;100.00
50430;BME280;36359;41.556;-8.418;2023-12-28T01:45:12;61932.81;;;13.58;100.00
50430;BME280;36359;41.556;-8.418;2023-12-28T01:47:38;61919.97;;;13.48;100.00
50430;BME280;36359;41.556;-8.418;2023-12-28T01:50:07;61926.91;;;13.55;100.00
50430;BME280;36359;41.556;-8.418;2023-12-28T01:52:33;61917.31;;;13.46;100.00
50430;BME280;36359;41.556;-8.418;2023-12-28T01:54:59;61924.78;;;13.53;100.00
50430;BME280;36359;41.556;-8.418;2023-12-28T01:57:25;61939.22;;;13.67;100.00
50430;BME280;36359;41.556;-8.418;2023-12-28T01:59:52;61945.09;;;13.72;100.00
50430;BME280;36359;41.556;-8.418;2023-12-28T02:02:19;61938.19;;;13.63;100.00
50430;BME280;36359;41.556;-8.418;2023-12-28T02:04:45;61946.72;;;13.74;100.00
50430;BME280;36359;41.556;-8.418;2023-12-28T02:07:11;61939.22;;;13.67;100.00
50430;BME280;36359;41.556;-8.418;2023-12-28T02:09:38;61928.50;;;13.59;100.00
50430;BME280;36359;41.556;-8.418;2023-12-28T02:12:04;61932.81;;;13.60;100.00
50430;BME280;36359;41.556;-8.418;2023-12-28T02:14:30;61949.38;;;13.76;100.00
50430;BME280;36359;41.556;-8.418;2023-12-28T02:17:04;61945.63;;;13.73;100.00
50430;BME280;36359;41.556;-8.418;2023-12-28T02:19:54;61948.31;;;13.75;100.00
50430;BME280;36359;41.556;-8.418;2023-12-28T02:22:23;61946.72;;;13.74;100.00
50430;BME280;36359;41.556;-8.418;2023-12-28T02:27:28;61953.69;;;13.75;100.00
50430;BME280;36359;41.556;-8.418;2023-12-28T02:29:55;61960.63;;;13.84;100.00
50430;BME280;36359;41.556;-8.418;2023-12-28T02:32:28;61972.38;;;13.96;100.00
50430;BME280;36359;41.556;-8.418;2023-12-28T02:35:03;61959.53;;;13.86;100.00
50430;BME280;36359;41.556;-8.418;2023-12-28T02:37:35;61945.09;;;13.72;100.00
50430;BME280;36359;41.556;-8.418;2023-12-28T02:40:02;61947.25;;;13.74;100.00
50430;BME280;36359;41.556;-8.418;2023-12-28T02:42:31;61957.91;;;13.84;100.00
50430;BME280;36359;41.556;-8.418;2023-12-28T02:44:56;61953.09;;;13.82;100.00
50430;BME280;36359;41.556;-8.418;2023-12-28T02:47:22;61947.25;;;13.74;100.00
50430;BME280;36359;41.556;-8.418;2023-12-28T02:49:48;61947.75;;;13.77;100.00
50430;BME280;36359;41.556;-8.418;2023-12-28T02:52:13;61956.84;;;13.83;100.00
50430;BME280;36359;41.556;-8.418;2023-12-28T02:54:39;61948.31;;;13.75;100.00
50430;BME280;36359;41.556;-8.418;2023-12-28T02:57:05;61968.09;;;13.94;100.00
50430;BME280;36359;41.556;-8.418;2023-12-28T02:59:31;61962.22;;;13.89;100.00
50430;BME280;36359;41.556;-8.418;2023-12-28T03:01:56;61965.41;;;13.92;100.00
50430;BME280;36359;41.556;-8.418;2023-12-28T03:04:22;61962.72;;;13.92;100.00
50430;BME280;36359;41.556;-8.418;2023-12-28T03:06:48;61953.09;;;13.82;100.00
50430;BME280;36359;41.556;-8.418;2023-12-28T03:09:13;61975.06;;;13.98;100.00
50430;BME280;36359;41.556;-8.418;2023-12-28T03:11:39;61946.66;;;13.76;100.00
50430;BME280;36359;41.556;-8.418;2023-12-28T03:14:05;61941.34;;;13.71;100.00
50430;BME280;36359;41.556;-8.418;2023-12-28T03:16:30;61944.59;;;13.69;100.00
50430;BME280;36359;41.556;-8.418;2023-12-28T03:18:56;61947.25;;;13.74;100.00
50430;BME280;36359;41.556;-8.418;2023-12-28T03:21:23;61934.44;;;13.59;100.00
50430;BME280;36359;41.556;-8.418;2023-12-28T03:23:49;61921.56;;;13.50;100.00
50430;BME280;36359;41.556;-8.418;2023-12-28T03:26:14;61908.25;;;13.34;100.00
50430;BME280;36359;41.556;-8.418;2023-12-28T03:28:40;61923.72;;;13.52;100.00
50430;BME280;36359;41.556;-8.418;2023-12-28T03:31:06;61916.25;;;13.45;100.00
50430;BME280;36359;41.556;-8.418;2023-12-28T03:33:33;61921.56;;;13.50;100.00
50430;BME280;36359;41.556;-8.418;2023-12-28T03:35:59;61906.09;;;13.32;100.00
50430;BME280;36359;41.556;-8.418;2023-12-28T03:38:25;61907.69;;;13.36;100.00
50430;BME280;36359;41.556;-8.418;2023-12-28T03:40:50;61908.75;;;13.37;100.00
50430;BME280;36359;41.556;-8.418;2023-12-28T03:43:17;61895.94;;;13.25;100.00
50430;BME280;36359;41.556;-8.418;2023-12-28T03:45:42;61891.09;;;13.21;100.00
50430;BME280;36359;41.556;-8.418;2023-12-28T03:48:08;61888.41;;;13.21;100.00
50430;BME280;36359;41.556;-8.418;2023-12-28T03:50:34;61901.84;;;13.28;100.00
50430;BME280;36359;41.556;-8.418;2023-12-28T03:53:00;61888.97;;;13.18;100.00
50430;BME280;36359;41.556;-8.418;2023-12-28T03:55:26;61904.47;;;13.33;100.00
50430;BME280;36359;41.556;-8.418;2023-12-28T03:57:51;61896.50;;;13.21;100.00
50430;BME280;36359;41.556;-8.418;2023-12-28T04:00:17;61885.78;;;13.15;100.00
50430;BME280;36359;41.556;-8.418;2023-12-28T04:02:43;61903.94;;;13.33;100.00
50430;BME280;36359;41.556;-8.418;2023-12-28T04:05:09;61918.34;;;13.49;100.00
50430;BME280;36359;41.556;-8.418;2023-12-28T04:07:34;61919.97;;;13.48;100.00
50430;BME280;36359;41.556;-8.418;2023-12-28T04:10:01;61910.91;;;13.39;100.00
50430;BME280;36359;41.556;-8.418;2023-12-28T04:12:27;61889.47;;;13.22;100.00
50430;BME280;36359;41.556;-8.418;2023-12-28T04:14:53;61881.97;;;13.17;100.00
50430;BME280;36359;41.556;-8.418;2023-12-28T04:17:19;61889.50;;;13.19;100.00
50430;BME280;36359;41.556;-8.418;2023-12-28T04:19:45;61891.09;;;13.21;100.00
50430;BME280;36359;41.556;-8.418;2023-12-28T04:22:11;61900.16;;;13.32;100.00
50430;BME280;36359;41.556;-8.418;2023-12-28T04:24:37;61929.09;;;13.54;100.00
50430;BME280;36359;41.556;-8.418;2023-12-28T04:27:03;61925.28;;;13.56;100.00
50430;BME280;36359;41.556;-8.418;2023-12-28T04:29:28;61935.47;;;13.63;100.00
50430;BME280;36359;41.556;-8.418;2023-12-28T04:31:55;61919.44;;;13.48;100.00
50430;BME280;36359;41.556;-8.418;2023-12-28T04:34:20;61923.19;;;13.51;100.00
50430;BME280;36359;41.556;-8.418;2023-12-28T04:36:46;61926.91;;;13.55;100.00
50430;BME280;36359;41.556;-8.418;2023-12-28T04:39:14;61925.88;;;13.51;100.00
50430;BME280;36359;41.556;-8.418;2023-12-28T04:41:40;61908.22;;;13.37;100.00
50430;BME280;36359;41.556;-8.418;2023-12-28T04:44:05;61902.34;;;13.31;100.00
50430;BME280;36359;41.556;-8.418;2023-12-28T04:46:31;61894.84;;;13.24;100.00
50430;BME280;36359;41.556;-8.418;2023-12-28T04:48:57;61904.47;;;13.33;100.00
50430;BME280;36359;41.556;-8.418;2023-12-28T04:51:23;61918.38;;;13.47;100.00
50430;BME280;36359;41.556;-8.418;2023-12-28T04:53:48;61931.72;;;13.62;100.00
50430;BME280;36359;41.556;-8.418;2023-12-28T04:56:18;61948.28;;;13.78;100.00
50430;BME280;36359;41.556;-8.418;2023-12-28T04:58:44;61930.09;;;13.60;100.00
50430;BME280;36359;41.556;-8.418;2023-12-28T05:01:11;61925.84;;;13.56;100.00
50430;BME280;36359;41.556;-8.418;2023-12-28T05:03:37;61953.66;;;13.80;100.00
50430;BME280;36359;41.556;-8.418;2023-12-28T05:06:03;61957.38;;;13.86;100.00
50430;BME280;36359;41.556;-8.418;2023-12-28T05:08:28;61955.78;;;13.82;100.00
50430;BME280;36359;41.556;-8.418;2023-12-28T05:10:54;61941.91;;;13.67;100.00
50430;BME280;36359;41.556;-8.418;2023-12-28T05:13:20;61936.53;;;13.64;100.00
50430;BME280;36359;41.556;-8.418;2023-12-28T05:15:46;61939.75;;;13.67;100.00
50430;BME280;36359;41.556;-8.418;2023-12-28T05:18:11;61945.63;;;13.73;100.00
50430;BME280;36359;41.556;-8.418;2023-12-28T05:20:37;61948.31;;;13.75;100.00
50430;BME280;36359;41.556;-8.418;2023-12-28T05:23:05;61946.19;;;13.71;100.00
50430;BME280;36359;41.556;-8.418;2023-12-28T05:25:30;61952.00;;;13.81;100.00
50430;BME280;36359;41.556;-8.418;2023-12-28T05:27:56;61965.94;;;13.92;100.00
50430;BME280;36359;41.556;-8.418;2023-12-28T05:30:22;61955.78;;;13.82;100.00
50430;BME280;36359;41.556;-8.418;2023-12-28T05:32:48;61952.03;;;13.79;100.00
50430;BME280;36359;41.556;-8.418;2023-12-28T05:35:13;61947.25;;;13.74;100.00
50430;BME280;36359;41.556;-8.418;2023-12-28T05:37:39;61954.22;;;13.78;100.00
50430;BME280;36359;41.556;-8.418;2023-12-28T05:40:05;61952.00;;;13.81;100.00
50430;BME280;36359;41.556;-8.418;2023-12-28T05:42:31;61959.59;;;13.81;100.00
50430;BME280;36359;41.556;-8.418;2023-12-28T05:44:57;61952.56;;;13.79;100.00
50430;BME280;36359;41.556;-8.418;2023-12-28T05:47:22;61958.41;;;13.90;100.00
50430;BME280;36359;41.556;-8.418;2023-12-28T05:49:49;61969.69;;;13.96;100.00
50430;BME280;36359;41.556;-8.418;2023-12-28T05:52:15;61972.91;;;13.96;100.00
50430;BME280;36359;41.556;-8.418;2023-12-28T05:54:42;61957.38;;;13.84;100.00
50430;BME280;36359;41.556;-8.418;2023-12-28T05:57:08;61979.31;;;14.05;100.00
50430;BME280;36359;41.556;-8.418;2023-12-28T05:59:37;61985.22;;;14.08;100.00
50430;BME280;36359;41.556;-8.418;2023-12-28T06:02:04;61968.09;;;13.94;100.00
50430;BME280;36359;41.556;-8.418;2023-12-28T06:04:29;61949.38;;;13.76;100.00
50430;BME280;36359;41.556;-8.418;2023-12-28T06:06:55;61952.56;;;13.79;100.00
50430;BME280;36359;41.556;-8.418;2023-12-28T06:09:21;61964.91;;;13.89;100.00
50430;BME280;36359;41.556;-8.418;2023-12-28T06:11:46;61931.22;;;13.59;100.00
50430;BME280;36359;41.556;-8.418;2023-12-28T06:14:13;61937.06;;;13.64;100.00
50430;BME280;36359;41.556;-8.418;2023-12-28T06:16:38;61930.63;;;13.61;100.00
50430;BME280;36359;41.556;-8.418;2023-12-28T06:19:04;61939.22;;;13.67;100.00
50430;BME280;36359;41.556;-8.418;2023-12-28T06:21:31;61940.81;;;13.68;100.00
50430;BME280;36359;41.556;-8.418;2023-12-28T06:23:58;61941.88;;;13.69;100.00
50430;BME280;36359;41.556;-8.418;2023-12-28T06:26:24;61945.63;;;13.73;100.00
50430;BME280;36359;41.556;-8.418;2023-12-28T06:28:50;61949.38;;;13.76;100.00
50430;BME280;36359;41.556;-8.418;2023-12-28T06:31:15;61937.63;;;13.65;100.00
50430;BME280;36359;41.556;-8.418;2023-12-28T06:33:41;61923.16;;;13.54;100.00
50430;BME280;36359;41.556;-8.418;2023-12-28T06:36:07;61914.59;;;13.46;100.00
50430;BME280;36359;41.556;-8.418;2023-12-28T06:38:33;61914.63;;;13.43;100.00
50430;BME280;36359;41.556;-8.418;2023-12-28T06:40:59;61891.66;;;13.21;100.00
50430;BME280;36359;41.556;-8.418;2023-12-28T06:43:25;61921.63;;;13.47;100.00
50430;BME280;36359;41.556;-8.418;2023-12-28T06:45:50;61898.00;;;13.32;100.00
50430;BME280;36359;41.556;-8.418;2023-12-28T06:48:18;61897.00;;;13.26;100.00
50430;BME280;36359;41.556;-8.418;2023-12-28T06:50:43;61918.91;;;13.47;100.00
50430;BME280;36359;41.556;-8.418;2023-12-28T06:53:09;61931.22;;;13.59;100.00
50430;BME280;36359;41.556;-8.418;2023-12-28T06:55:35;61937.13;;;13.62;100.00
50430;BME280;36359;41.556;-8.418;2023-12-28T06:58:01;61948.31;;;13.75;100.00
50430;BME280;36359;41.556;-8.418;2023-12-28T07:00:26;61933.34;;;13.61;100.00
50430;BME280;36359;41.556;-8.418;2023-12-28T07:02:52;61925.81;;;13.59;100.00
50430;BME280;36359;41.556;-8.418;2023-12-28T07:05:18;61947.75;;;13.77;100.00
50430;BME280;36359;41.556;-8.418;2023-12-28T07:07:44;61949.38;;;13.76;100.00
50430;BME280;36359;41.556;-8.418;2023-12-28T07:10:10;61970.75;;;13.97;100.00
50430;BME280;36359;41.556;-8.418;2023-12-28T07:12:35;61961.13;;;13.88;100.00
50430;BME280;36359;41.556;-8.418;2023-12-28T07:15:01;61967.53;;;13.94;100.00
50430;BME280;36359;41.556;-8.418;2023-12-28T07:17:27;61963.81;;;13.90;100.00
50430;BME280;36359;41.556;-8.418;2023-12-28T07:19:52;61979.84;;;14.05;100.00
50430;BME280;36359;41.556;-8.418;2023-12-28T07:22:19;61962.72;;;13.92;100.00
50430;BME280;36359;41.556;-8.418;2023-12-28T07:24:45;61965.41;;;13.92;100.00
50430;BME280;36359;41.556;-8.418;2023-12-28T07:27:10;61993.22;;;14.18;100.00
50430;BME280;36359;41.556;-8.418;2023-12-28T07:29:36;61996.41;;;14.21;100.00
50430;BME280;36359;41.556;-8.418;2023-12-28T07:32:02;61996.41;;;14.21;100.00
50430;BME280;36359;41.556;-8.418;2023-12-28T07:34:29;61973.94;;;14.00;100.00
50430;BME280;36359;41.556;-8.418;2023-12-28T07:36:55;61972.34;;;13.98;100.00
50430;BME280;36359;41.556;-8.418;2023-12-28T07:39:20;61976.66;;;14.00;100.00
50430;BME280;36359;41.556;-8.418;2023-12-28T07:41:46;61964.34;;;13.91;100.00
50430;BME280;36359;41.556;-8.418;2023-12-28T07:44:12;61984.66;;;14.10;100.00
50430;BME280;36359;41.556;-8.418;2023-12-28T07:46:37;61984.13;;;14.09;100.00
50430;BME280;36359;41.556;-8.418;2023-12-28T07:49:03;61996.97;;;14.22;100.00
50430;BME280;36359;41.556;-8.418;2023-12-28T07:51:29;61993.19;;;14.21;100.00
50430;BME280;36359;41.556;-8.418;2023-12-28T07:53:54;62009.81;;;14.31;100.00
50430;BME280;36359;41.556;-8.418;2023-12-28T07:56:20;62003.91;;;14.28;100.00
50430;BME280;36359;41.556;-8.418;2023-12-28T07:58:46;62017.25;;;14.44;100.00
50430;BME280;36359;41.556;-8.418;2023-12-28T08:01:12;61981.44;;;14.07;100.00
50430;BME280;36359;41.556;-8.418;2023-12-28T08:03:37;61990.53;;;14.16;100.00
50430;BME280;36359;41.556;-8.418;2023-12-28T08:06:03;62010.31;;;14.35;100.00
50430;BME280;36359;41.556;-8.418;2023-12-28T08:08:29;61992.69;;;14.18;100.00
50430;BME280;36359;41.556;-8.418;2023-12-28T08:10:56;62008.75;;;14.30;100.00
50430;BME280;36359;41.556;-8.418;2023-12-28T08:13:21;62002.28;;;14.29;100.00
50430;BME280;36359;41.556;-8.418;2023-12-28T08:15:47;62026.91;;;14.53;100.00
50430;BME280;36359;41.556;-8.418;2023-12-28T08:18:13;62007.59;;;14.37;100.00
50430;BME280;36359;41.556;-8.418;2023-12-28T08:20:38;62013.00;;;14.37;100.00
50430;BME280;36359;41.556;-8.418;2023-12-28T08:23:04;62002.28;;;14.29;100.00
50430;BME280;36359;41.556;-8.418;2023-12-28T08:25:30;62011.41;;;14.36;100.00
50430;BME280;36359;41.556;-8.418;2023-12-28T08:27:56;61993.72;;;14.21;100.00
50430;BME280;36359;41.556;-8.418;2023-12-28T08:30:22;62010.31;;;14.35;100.00
50430;BME280;36359;41.556;-8.418;2023-12-28T08:32:47;62035.44;;;14.61;100.00
50430;BME280;36359;41.556;-8.418;2023-12-28T08:35:13;62030.13;;;14.53;100.00
50430;BME280;36359;41.556;-8.418;2023-12-28T08:37:39;62030.09;;;14.56;100.00
50430;BME280;36359;41.556;-8.418;2023-12-28T08:40:05;62046.19;;;14.69;100.00
50430;BME280;36359;41.556;-8.418;2023-12-28T08:42:31;62022.09;;;14.46;100.00
50430;BME280;36359;41.556;-8.418;2023-12-28T08:44:57;62016.72;;;14.43;100.00
50430;BME280;36359;41.556;-8.418;2023-12-28T08:47:22;61991.56;;;14.19;100.00
50430;BME280;36359;41.556;-8.418;2023-12-28T08:49:48;62019.38;;;14.46;100.00
50430;BME280;36359;41.556;-8.418;2023-12-28T08:52:14;62023.72;;;14.45;100.00
50430;BME280;36359;41.556;-8.418;2023-12-28T08:54:40;62009.78;;;14.34;100.00
50430;BME280;36359;41.556;-8.418;2023-12-28T08:57:06;62013.00;;;14.37;100.00
50430;BME280;36359;41.556;-8.418;2023-12-28T08:59:36;62007.09;;;14.31;100.00
50430;BME280;36359;41.556;-8.418;2023-12-28T09:02:02;62026.94;;;14.48;100.00
50430;BME280;36359;41.556;-8.418;2023-12-28T09:04:27;62036.06;;;14.57;100.00
50430;BME280;36359;41.556;-8.418;2023-12-28T09:06:53;62008.19;;;14.32;100.00
50430;BME280;36359;41.556;-8.418;2023-12-28T09:09:19;62031.72;;;14.55;100.00
50430;BME280;36359;41.556;-8.418;2023-12-28T09:11:45;62032.81;;;14.56;100.00
50430;BME280;36359;41.556;-8.418;2023-12-28T09:14:10;62032.81;;;14.56;100.00
50430;BME280;36359;41.556;-8.418;2023-12-28T09:16:36;62026.91;;;14.50;100.00
50430;BME280;36359;41.556;-8.418;2023-12-28T09:19:02;62040.81;;;14.66;100.00
50430;BME280;36359;41.556;-8.418;2023-12-28T09:21:28;62045.13;;;14.68;100.00
50430;BME280;36359;41.556;-8.418;2023-12-28T09:23:53;62019.38;;;14.46;100.00
50430;BME280;36359;41.556;-8.418;2023-12-28T09:26:19;62012.47;;;14.37;100.00
50430;BME280;36359;41.556;-8.418;2023-12-28T09:28:45;62028.53;;;14.52;100.00
50430;BME280;36359;41.556;-8.418;2023-12-28T09:31:11;62012.50;;;14.34;100.00
50430;BME280;36359;41.556;-8.418;2023-12-28T09:33:37;61998.00;;;14.25;100.00
50430;BME280;36359;41.556;-8.418;2023-12-28T09:36:03;62001.75;;;14.26;100.00
50430;BME280;36359;41.556;-8.418;2023-12-28T09:38:29;62001.75;;;14.26;100.00
50430;BME280;36359;41.556;-8.418;2023-12-28T09:40:58;61997.47;;;14.22;100.00
50430;BME280;36359;41.556;-8.418;2023-12-28T09:43:25;61995.88;;;14.21;100.00
50430;BME280;36359;41.556;-8.418;2023-12-28T09:45:52;62007.72;;;14.27;100.00
50430;BME280;36359;41.556;-8.418;2023-12-28T09:48:20;62013.53;;;14.38;100.00
50430;BME280;36359;41.556;-8.418;2023-12-28T09:50:50;61992.13;;;14.17;100.00
50430;BME280;36359;41.556;-8.418;2023-12-28T09:53:16;61994.28;;;14.19;100.00
50430;BME280;36359;41.556;-8.418;2023-12-28T09:55:43;62001.75;;;14.26;100.00
50430;BME280;36359;41.556;-8.418;2023-12-28T09:58:10;62006.56;;;14.34;100.00
50430;BME280;36359;41.556;-8.418;2023-12-28T10:00:37;62019.41;;;14.43;100.00
50430;BME280;36359;41.556;-8.418;2023-12-28T10:03:03;62039.22;;;14.62;100.00
50430;BME280;36359;41.556;-8.418;2023-12-28T10:05:29;62024.22;;;14.48;100.00
50430;BME280;36359;41.556;-8.418;2023-12-28T10:07:55;62019.94;;;14.44;100.00
50430;BME280;36359;41.556;-8.418;2023-12-28T10:10:21;62012.47;;;14.37;100.00
50430;BME280;36359;41.556;-8.418;2023-12-28T10:12:47;61997.47;;;14.25;100.00
50430;BME280;36359;41.556;-8.418;2023-12-28T10:15:13;62008.72;;;14.33;100.00
50430;BME280;36359;41.556;-8.418;2023-12-28T10:17:39;62044.56;;;14.67;100.00
50430;BME280;36359;41.556;-8.418;2023-12-28T10:20:06;62029.59;;;14.53;100.00
50430;BME280;36359;41.556;-8.418;2023-12-28T10:22:36;62017.25;;;14.44;100.00
50430;BME280;36359;41.556;-8.418;2023-12-28T10:25:03;62042.44;;;14.65;100.00
50430;BME280;36359;41.556;-8.418;2023-12-28T10:27:29;62031.72;;;14.55;100.00
50430;BME280;36359;41.556;-8.418;2023-12-28T10:29:56;62039.22;;;14.62;100.00
50430;BME280;36359;41.556;-8.418;2023-12-28T10:32:22;62054.75;;;14.77;100.00
50430;BME280;36359;41.556;-8.418;2023-12-28T10:34:52;62045.66;;;14.68;100.00
50430;BME280;36359;41.556;-8.418;2023-12-28T10:37:19;62043.50;;;14.66;100.00
50430;BME280;36359;41.556;-8.418;2023-12-28T10:39:53;62042.94;;;14.68;100.00
50430;BME280;36359;41.556;-8.418;2023-12-28T10:42:32;62034.44;;;14.55;100.00
50430;BME280;36359;41.556;-8.418;2023-12-28T10:45:05;62062.19;;;14.87;100.00
50430;BME280;36359;41.556;-8.418;2023-12-28T10:47:32;62059.03;;;14.81;100.00
50430;BME280;36359;41.556;-8.418;2023-12-28T10:50:05;62040.28;;;14.63;100.00
50430;BME280;36359;41.556;-8.418;2023-12-28T10:52:33;62047.22;;;14.72;100.00
50430;BME280;36359;41.556;-8.418;2023-12-28T10:55:24;62039.75;;;14.63;100.00
50430;BME280;36359;41.556;-8.418;2023-12-28T10:58:12;62036.53;;;14.62;100.00
50430;BME280;36359;41.556;-8.418;2023-12-28T11:00:44;62038.16;;;14.61;100.00
50430;BME280;36359;41.556;-8.418;2023-12-28T11:03:16;62049.91;;;14.72;100.00
50430;BME280;36359;41.556;-8.418;2023-12-28T11:05:45;62056.31;;;14.81;100.00
50430;BME280;36359;41.556;-8.418;2023-12-28T11:08:12;62075.03;;;14.99;100.00
50430;BME280;36359;41.556;-8.418;2023-12-28T11:10:41;62071.84;;;14.93;100.00
50430;BME280;36359;41.556;-8.418;2023-12-28T11:13:08;62080.94;;;15.02;100.00
50430;BME280;36359;41.556;-8.418;2023-12-28T11:15:36;62092.72;;;15.13;100.00
50430;BME280;36359;41.556;-8.418;2023-12-28T11:18:03;62076.66;;;15.01;100.00
50430;BME280;36359;41.556;-8.418;2023-12-28T11:20:29;62105.03;;;15.25;100.00
50430;BME280;36359;41.556;-8.418;2023-12-28T11:22:56;62095.41;;;15.16;100.00
50430;BME280;36359;41.556;-8.418;2023-12-28T11:25:22;62096.44;;;15.19;100.00
50430;BME280;36359;41.556;-8.418;2023-12-28T11:27:48;62101.28;;;15.21;100.00
50430;BME280;36359;41.556;-8.418;2023-12-28T11:30:14;62126.97;;;15.46;100.00
50430;BME280;36359;41.556;-8.418;2023-12-28T11:32:41;62119.53;;;15.36;100.00
50430;BME280;36359;41.556;-8.418;2023-12-28T11:35:13;62116.78;;;15.39;100.00
50430;BME280;36359;41.556;-8.418;2023-12-28T11:37:46;62126.44;;;15.48;100.00
50430;BME280;36359;41.556;-8.418;2023-12-28T11:40:13;62125.91;;;15.45;100.00
50430;BME280;36359;41.556;-8.418;2023-12-28T11:42:49;62139.28;;;15.60;100.00
50430;BME280;36359;41.556;-8.418;2023-12-28T11:45:17;62131.81;;;15.51;100.00
50430;BME280;36359;41.556;-8.418;2023-12-28T11:47:43;62123.16;;;15.50;100.00
50430;BME280;36359;41.556;-8.418;2023-12-28T11:50:09;62135.00;;;15.56;100.00
50430;BME280;36359;41.556;-8.418;2023-12-28T11:52:35;62138.22;;;15.57;100.00
50430;BME280;36359;41.556;-8.418;2023-12-28T11:55:01;62139.81;;;15.61;100.00
50430;BME280;36359;41.556;-8.418;2023-12-28T11:57:27;62141.44;;;15.60;100.00
50430;BME280;36359;41.556;-8.418;2023-12-28T11:59:55;62135.56;;;15.54;100.00
50430;BME280;36359;41.556;-8.418;2023-12-28T12:02:21;62130.16;;;15.52;100.00
50430;BME280;36359;41.556;-8.418;2023-12-28T12:04:47;62126.97;;;15.46;100.00
50430;BME280;36359;41.556;-8.418;2023-12-28T12:07:13;62125.34;;;15.47;100.00
50430;BME280;36359;41.556;-8.418;2023-12-28T12:09:39;62123.28;;;15.40;100.00
50430;BME280;36359;41.556;-8.418;2023-12-28T12:12:06;62123.25;;;15.42;100.00
50430;BME280;36359;41.556;-8.418;2023-12-28T12:14:34;62136.09;;;15.55;100.00
50430;BME280;36359;41.556;-8.418;2023-12-28T12:17:00;62143.59;;;15.62;100.00
50430;BME280;36359;41.556;-8.418;2023-12-28T12:19:26;62129.66;;;15.49;100.00
50430;BME280;36359;41.556;-8.418;2023-12-28T12:21:53;62142.47;;;15.63;100.00
50430;BME280;36359;41.556;-8.418;2023-12-28T12:24:19;62138.22;;;15.57;100.00
50430;BME280;36359;41.556;-8.418;2023-12-28T12:26:46;62146.81;;;15.65;100.00
50430;BME280;36359;41.556;-8.418;2023-12-28T12:29:13;62137.69;;;15.56;100.00
50430;BME280;36359;41.556;-8.418;2023-12-28T12:31:40;62151.56;;;15.75;100.00
50430;BME280;36359;41.556;-8.418;2023-12-28T12:34:10;62161.28;;;15.79;100.00
50430;BME280;36359;41.556;-8.418;2023-12-28T12:36:37;62170.34;;;15.90;100.00
50430;BME280;36359;41.556;-8.418;2023-12-28T12:39:06;62162.88;;;15.80;100.00
50430;BME280;36359;41.556;-8.418;2023-12-28T12:41:35;62168.25;;;15.85;100.00